Terminal Aerodrome Forecast
Issued by NWS

Home | Current Version | Previous Version | Text Only | Print | Product List | Glossary On
Versions: 1 2 3 4 5 6 7 8 9 10 11 12 13 14 15 16 17 18 19 20 21 22 23 24
804
FTUS43 KMQT 240647 AAA
TAFSAW
TAF AMD
KSAW 240647Z 2407/2506 18008KT 6SM -SHRA SCT008 OVC019
      TEMPO 2408/2410 P6SM NSW SCT019 OVC025
     FM241000 18009KT 5SM -SHRA SCT015 OVC025
     FM241600 23009KT P6SM SCT035
     FM241900 26009G16KT P6SM SCT110
     FM242100 29010G19KT P6SM SCT150
     FM250100 29008KT P6SM SCT200=

USA.gov is the U.S. government's official web portal to all federal, state and local government web resources and services.